createdAt,value
2019-02-24T00:00:43.646Z,0
2019-02-24T00:01:53.578Z,0
2019-02-24T00:03:03.524Z,0
2019-02-24T00:04:13.501Z,0
2019-02-24T00:05:23.440Z,0
2019-02-24T00:06:33.138Z,0
2019-02-24T00:07:42.591Z,0
2019-02-24T00:08:52.525Z,0
2019-02-24T00:10:02.216Z,0
2019-02-24T00:11:12.261Z,0
2019-02-24T00:12:21.942Z,0
2019-02-24T00:13:31.886Z,0
2019-02-24T00:14:41.820Z,0
2019-02-24T00:15:51.766Z,0
2019-02-24T00:17:01.716Z,0
2019-02-24T00:18:11.662Z,0
2019-02-24T00:19:21.598Z,0
2019-02-24T00:20:31.545Z,0
2019-02-24T00:21:41.515Z,0
2019-02-24T00:22:50.952Z,0
2019-02-24T00:24:00.884Z,0
2019-02-24T00:25:10.329Z,0
2019-02-24T00:26:20.282Z,0
2019-02-24T00:27:30.229Z,0
2019-02-24T00:28:40.175Z,0
2019-02-24T00:29:50.139Z,0
2019-02-24T00:30:59.570Z,0
2019-02-24T00:32:09.290Z,0
2019-02-24T00:33:18.743Z,0
2019-02-24T00:34:28.679Z,0
2019-02-24T00:35:38.627Z,0
2019-02-24T00:36:48.584Z,0
2019-02-24T00:37:58.522Z,0
2019-02-24T00:39:08.469Z,0
2019-02-24T00:40:18.407Z,0
2019-02-24T00:41:28.362Z,0
2019-02-24T00:42:38.058Z,0
2019-02-24T00:43:47.490Z,0
2019-02-24T00:44:57.428Z,0
2019-02-24T00:46:07.381Z,0
2019-02-24T00:47:17.344Z,0
2019-02-24T00:48:27.039Z,0
2019-02-24T00:49:36.751Z,0
2019-02-24T00:50:46.688Z,0
2019-02-24T00:51:56.368Z,0
2019-02-24T00:53:06.308Z,0
2019-02-24T00:54:16.253Z,0
2019-02-24T00:55:25.695Z,0
2019-02-24T00:56:35.380Z,0
2019-02-24T00:57:45.324Z,0
2019-02-24T00:58:55.266Z,0
2019-02-24T01:00:05.196Z,0
2019-02-24T01:01:15.138Z,0
2019-02-24T01:02:25.073Z,0
2019-02-24T01:03:35.014Z,0
2019-02-24T01:04:44.957Z,0
2019-02-24T01:05:54.901Z,0
2019-02-24T01:07:04.832Z,0
2019-02-24T01:08:14.517Z,0
2019-02-24T01:09:24.198Z,0
2019-02-24T01:10:33.878Z,0
2019-02-24T01:11:43.564Z,0
2019-02-24T01:12:53.494Z,0
2019-02-24T01:14:03.595Z,0
2019-02-24T01:15:13.529Z,0
2019-02-24T01:16:23.235Z,0
2019-02-24T01:17:33.159Z,0
2019-02-24T01:18:43.089Z,0
2019-02-24T01:19:53.032Z,0
2019-02-24T01:21:02.970Z,0
2019-02-24T01:22:12.912Z,0
2019-02-24T01:23:22.844Z,0
2019-02-24T01:24:32.274Z,0
2019-02-24T01:25:42.018Z,0
2019-02-24T01:26:51.448Z,0
2019-02-24T01:28:01.397Z,0
2019-02-24T01:29:11.347Z,0
2019-02-24T01:30:21.100Z,0
2019-02-24T01:31:30.827Z,0
2019-02-24T01:32:40.806Z,0
2019-02-24T01:33:50.750Z,0
2019-02-24T01:35:00.683Z,0
2019-02-24T01:36:10.634Z,0
2019-02-24T01:37:20.066Z,0
2019-02-24T01:38:29.756Z,0
2019-02-24T01:39:39.706Z,0
2019-02-24T01:40:49.415Z,0
2019-02-24T01:41:59.339Z,0
2019-02-24T01:43:09.026Z,0
2019-02-24T01:44:18.719Z,0
2019-02-24T01:45:28.662Z,0
2019-02-24T01:46:38.091Z,0
2019-02-24T01:47:48.030Z,0
2019-02-24T01:48:57.719Z,0
2019-02-24T01:50:07.660Z,0
2019-02-24T01:51:17.601Z,0
2019-02-24T01:52:27.278Z,0
2019-02-24T01:53:36.975Z,0
2019-02-24T01:54:46.654Z,0
2019-02-24T01:55:56.353Z,0
2019-02-24T01:57:05.780Z,0
2019-02-24T01:58:15.464Z,0
2019-02-24T01:59:25.429Z,0
2019-02-24T02:00:35.159Z,0
2019-02-24T02:01:45.116Z,0
2019-02-24T02:02:54.812Z,0
2019-02-24T02:04:04.756Z,0
2019-02-24T02:05:14.707Z,0
2019-02-24T02:06:24.413Z,0
2019-02-24T02:07:34.107Z,0
2019-02-24T02:08:43.799Z,0
2019-02-24T02:09:53.735Z,0
2019-02-24T02:11:03.428Z,0
2019-02-24T02:12:13.367Z,0
2019-02-24T02:13:23.065Z,0
2019-02-24T02:14:32.997Z,0
2019-02-24T02:15:42.935Z,0
2019-02-24T02:16:52.865Z,0
2019-02-24T02:18:02.798Z,0
2019-02-24T02:19:12.496Z,0
2019-02-24T02:20:22.181Z,0
2019-02-24T02:21:31.857Z,0
2019-02-24T02:22:41.791Z,0
2019-02-24T02:23:51.473Z,0
2019-02-24T02:25:01.403Z,0
2019-02-24T02:26:11.331Z,0
2019-02-24T02:27:21.015Z,0
2019-02-24T02:28:30.457Z,0
2019-02-24T02:29:40.403Z,0
2019-02-24T02:30:50.095Z,0
2019-02-24T02:31:59.527Z,0
2019-02-24T02:33:09.212Z,0
2019-02-24T02:34:19.153Z,0
2019-02-24T02:35:29.105Z,0
2019-02-24T02:36:38.785Z,0
2019-02-24T02:37:48.732Z,0
2019-02-24T02:38:58.679Z,0
2019-02-24T02:40:08.384Z,0
2019-02-24T02:41:18.319Z,0
2019-02-24T02:42:28.006Z,0
2019-02-24T02:43:37.701Z,0
2019-02-24T02:44:47.413Z,0
2019-02-24T02:45:57.109Z,0
2019-02-24T02:47:07.029Z,0
2019-02-24T02:48:16.973Z,0
2019-02-24T02:49:26.171Z,0
2019-02-24T02:50:35.871Z,0
2019-02-24T02:51:45.331Z,0
2019-02-24T02:52:55.354Z,0
2019-02-24T02:54:05.319Z,0
2019-02-24T02:55:15.003Z,0
2019-02-24T02:56:24.709Z,0
2019-02-24T02:57:34.393Z,0
2019-02-24T02:58:53.555Z,0
2019-02-24T03:00:03.559Z,0
2019-02-24T03:01:13.490Z,0
2019-02-24T03:02:33.537Z,0
2019-02-24T03:03:43.480Z,0
2019-02-24T03:04:52.927Z,0
2019-02-24T03:06:02.877Z,0
2019-02-24T03:07:12.563Z,0
2019-02-24T03:08:22.521Z,0
2019-02-24T03:09:32.203Z,0
2019-02-24T03:10:42.143Z,0
2019-02-24T03:11:51.828Z,0
2019-02-24T03:13:01.521Z,0
2019-02-24T03:14:11.214Z,0
2019-02-24T03:15:21.169Z,0
2019-02-24T03:16:32.432Z,0
2019-02-24T03:17:41.914Z,0
2019-02-24T03:18:51.612Z,0
2019-02-24T03:20:01.537Z,0
2019-02-24T03:21:11.505Z,0
2019-02-24T03:22:21.472Z,0
2019-02-24T03:23:30.934Z,0
2019-02-24T03:24:40.374Z,0
2019-02-24T03:25:50.068Z,0
2019-02-24T03:26:59.994Z,0
2019-02-24T03:28:09.702Z,0
2019-02-24T03:29:19.643Z,0
2019-02-24T03:30:29.715Z,0
2019-02-24T03:31:39.466Z,0
2019-02-24T03:32:49.445Z,0
2019-02-24T03:33:58.907Z,0
2019-02-24T03:35:08.857Z,0
2019-02-24T03:36:18.302Z,0
2019-02-24T03:37:28.235Z,0
2019-02-24T03:38:37.939Z,0
2019-02-24T03:39:47.888Z,0
2019-02-24T03:40:57.833Z,0
2019-02-24T03:42:07.772Z,0
2019-02-24T03:43:17.704Z,0
2019-02-24T03:44:27.482Z,0
2019-02-24T03:45:37.177Z,0
2019-02-24T03:46:46.850Z,0
2019-02-24T03:47:56.820Z,0
2019-02-24T03:49:06.789Z,0
2019-02-24T03:50:16.494Z,0
2019-02-24T03:51:26.445Z,0
2019-02-24T03:52:36.377Z,0
2019-02-24T03:53:46.079Z,0
2019-02-24T03:54:56.038Z,0
2019-02-24T03:56:07.259Z,0
2019-02-24T03:57:16.935Z,0
2019-02-24T03:58:26.604Z,0
2019-02-24T03:59:36.541Z,0
2019-02-24T04:00:46.491Z,0
2019-02-24T04:01:55.920Z,0
2019-02-24T04:03:05.865Z,0
2019-02-24T04:04:15.803Z,0
2019-02-24T04:05:25.502Z,0
2019-02-24T04:06:35.222Z,0
2019-02-24T04:07:45.163Z,0
2019-02-24T04:08:55.114Z,0
2019-02-24T04:10:04.942Z,0
2019-02-24T04:11:14.871Z,0
2019-02-24T04:12:24.816Z,0
2019-02-24T04:13:34.758Z,0
2019-02-24T04:14:44.703Z,0
2019-02-24T04:15:54.388Z,0
2019-02-24T04:17:04.130Z,0
2019-02-24T04:18:14.059Z,0
2019-02-24T04:19:23.760Z,0
2019-02-24T04:20:33.729Z,0
2019-02-24T04:21:43.166Z,0
2019-02-24T04:22:52.860Z,0
2019-02-24T04:24:02.800Z,0
2019-02-24T04:25:12.744Z,0
2019-02-24T04:26:22.426Z,0
2019-02-24T04:27:32.105Z,0
2019-02-24T04:28:42.028Z,0
2019-02-24T04:29:52.024Z,0
2019-02-24T04:31:01.951Z,0
2019-02-24T04:32:11.910Z,0
2019-02-24T04:33:21.892Z,0
2019-02-24T04:34:31.325Z,0
2019-02-24T04:35:41.026Z,0
2019-02-24T04:36:50.993Z,0
2019-02-24T04:38:00.935Z,0
2019-02-24T04:39:10.625Z,0
2019-02-24T04:40:20.318Z,0
2019-02-24T04:41:30.252Z,0
2019-02-24T04:42:39.936Z,0
2019-02-24T04:43:49.909Z,0
2019-02-24T04:44:59.599Z,0
2019-02-24T04:46:09.285Z,0
2019-02-24T04:47:18.989Z,0
2019-02-24T04:48:28.956Z,0
2019-02-24T04:49:38.695Z,0
2019-02-24T04:50:48.394Z,0
2019-02-24T04:51:58.327Z,0
2019-02-24T04:53:08.268Z,0
2019-02-24T04:54:18.208Z,0
2019-02-24T04:55:27.680Z,0
2019-02-24T04:56:37.622Z,0
2019-02-24T04:57:47.417Z,0
2019-02-24T04:58:57.374Z,0
2019-02-24T05:00:07.643Z,0
2019-02-24T05:01:17.364Z,0
2019-02-24T05:02:27.054Z,0
2019-02-24T05:03:37.006Z,0
2019-02-24T05:04:46.961Z,0
2019-02-24T05:05:56.886Z,0
2019-02-24T05:07:06.844Z,0
2019-02-24T05:08:16.796Z,0
2019-02-24T05:09:26.478Z,0
2019-02-24T05:10:36.431Z,0
2019-02-24T05:11:46.390Z,0
2019-02-24T05:12:56.323Z,0
2019-02-24T05:14:06.016Z,0
2019-02-24T05:15:15.979Z,0
2019-02-24T05:16:25.950Z,0
2019-02-24T05:17:35.643Z,0
2019-02-24T05:18:45.326Z,0
2019-02-24T05:19:55.277Z,0
2019-02-24T05:21:04.958Z,0
2019-02-24T05:22:14.902Z,0
2019-02-24T05:23:24.841Z,0
2019-02-24T05:24:34.757Z,0
2019-02-24T05:25:44.462Z,0
2019-02-24T05:26:53.889Z,0
2019-02-24T05:28:03.833Z,0
2019-02-24T05:29:13.532Z,0
2019-02-24T05:30:23.223Z,0
2019-02-24T05:31:33.161Z,0
2019-02-24T05:32:42.845Z,0
2019-02-24T05:33:52.776Z,0
2019-02-24T05:35:02.718Z,0
2019-02-24T05:36:12.153Z,0
2019-02-24T05:37:21.603Z,0
2019-02-24T05:38:31.302Z,0
2019-02-24T05:39:41.232Z,0
2019-02-24T05:40:50.917Z,0
2019-02-24T05:42:00.857Z,0
2019-02-24T05:43:10.808Z,0
2019-02-24T05:44:20.772Z,0
2019-02-24T05:45:30.474Z,0
2019-02-24T05:46:40.170Z,0
2019-02-24T05:47:49.624Z,0
2019-02-24T05:48:59.569Z,0
2019-02-24T05:50:09.514Z,0
2019-02-24T05:51:19.444Z,0
2019-02-24T05:52:29.412Z,0
2019-02-24T05:53:39.361Z,0
2019-02-24T05:54:51.722Z,0
2019-02-24T05:56:01.847Z,0
2019-02-24T05:57:11.544Z,5
2019-02-24T05:58:21.496Z,5
2019-02-24T05:59:31.447Z,5
2019-02-24T06:00:40.892Z,5
2019-02-24T06:01:50.857Z,5
2019-02-24T06:03:00.803Z,5
2019-02-24T06:04:10.749Z,5
2019-02-24T06:05:20.186Z,5
2019-02-24T06:06:30.157Z,10
2019-02-24T06:07:40.472Z,10
2019-02-24T06:08:50.422Z,10
2019-02-24T06:09:59.836Z,10
2019-02-24T06:11:09.533Z,15
2019-02-24T06:12:19.467Z,15
2019-02-24T06:13:29.156Z,15
2019-02-24T06:14:39.084Z,15
2019-02-24T06:15:48.760Z,20
2019-02-24T06:16:58.690Z,20
2019-02-24T06:18:08.373Z,20
2019-02-24T06:19:18.312Z,20
2019-02-24T06:20:28.002Z,25
2019-02-24T06:21:37.958Z,25
2019-02-24T06:22:47.735Z,25
2019-02-24T06:23:57.413Z,25
2019-02-24T06:25:07.437Z,30
2019-02-24T06:26:17.416Z,30
2019-02-24T06:27:27.092Z,30
2019-02-24T06:28:37.048Z,30
2019-02-24T06:29:46.997Z,35
2019-02-24T06:30:56.184Z,35
2019-02-24T06:32:06.153Z,35
2019-02-24T06:33:15.857Z,35
2019-02-24T06:34:25.561Z,40
2019-02-24T06:35:36.029Z,40
2019-02-24T06:36:46.008Z,40
2019-02-24T06:37:55.706Z,40
2019-02-24T06:39:05.140Z,40
2019-02-24T06:40:14.566Z,45
2019-02-24T06:41:24.507Z,45
2019-02-24T06:42:33.940Z,45
2019-02-24T06:43:43.917Z,45
2019-02-24T06:44:53.582Z,45
2019-02-24T06:46:03.518Z,45
2019-02-24T06:47:12.952Z,45
2019-02-24T06:48:22.908Z,45
2019-02-24T06:49:32.605Z,45
2019-02-24T06:50:45.204Z,45
2019-02-24T06:51:54.908Z,45
2019-02-24T06:53:04.593Z,45
2019-02-24T06:54:14.294Z,45
2019-02-24T06:55:23.734Z,50
2019-02-24T06:56:33.678Z,50
2019-02-24T06:57:43.624Z,50
2019-02-24T06:58:53.324Z,50
2019-02-24T07:00:02.801Z,50
2019-02-24T07:01:12.517Z,50
2019-02-24T07:02:22.225Z,50
2019-02-24T07:03:31.896Z,55
2019-02-24T07:04:41.601Z,55
2019-02-24T07:05:51.530Z,55
2019-02-24T07:07:00.958Z,55
2019-02-24T07:08:10.888Z,55
2019-02-24T07:09:21.605Z,60
2019-02-24T07:10:31.296Z,60
2019-02-24T07:11:41.237Z,60
2019-02-24T07:12:50.966Z,60
2019-02-24T07:14:00.428Z,60
2019-02-24T07:15:10.126Z,60
2019-02-24T07:16:20.067Z,65
2019-02-24T07:17:30.004Z,65
2019-02-24T07:18:39.957Z,65
2019-02-24T07:19:49.884Z,70
2019-02-24T07:20:59.961Z,70
2019-02-24T07:22:09.909Z,75
2019-02-24T07:23:19.839Z,75
2019-02-24T07:24:29.804Z,80
2019-02-24T07:25:39.746Z,80
2019-02-24T07:26:49.689Z,85
2019-02-24T07:28:00.768Z,85
2019-02-24T07:29:10.453Z,90
2019-02-24T07:30:28.384Z,95
2019-02-24T07:31:38.323Z,95
2019-02-24T07:32:48.458Z,100
2019-02-24T07:33:58.158Z,100
2019-02-24T07:35:08.169Z,105
2019-02-24T07:36:17.869Z,105
2019-02-24T07:37:27.798Z,110
2019-02-24T07:38:37.742Z,115
2019-02-24T07:39:47.695Z,115
2019-02-24T07:40:57.631Z,115
2019-02-24T07:42:07.576Z,120
2019-02-24T07:43:17.028Z,120
2019-02-24T07:44:26.970Z,120
2019-02-24T07:45:36.659Z,120
2019-02-24T07:46:46.357Z,120
2019-02-24T07:47:56.279Z,125
2019-02-24T07:49:05.964Z,125
2019-02-24T07:50:15.913Z,125
2019-02-24T07:51:25.859Z,130
2019-02-24T07:52:35.536Z,130
2019-02-24T07:53:45.489Z,135
2019-02-24T07:54:55.163Z,135
2019-02-24T07:56:04.857Z,135
2019-02-24T07:57:14.557Z,135
2019-02-24T07:58:24.513Z,140
2019-02-24T07:59:34.467Z,140
2019-02-24T08:00:43.895Z,140
2019-02-24T08:01:53.825Z,140
2019-02-24T08:03:03.515Z,145
2019-02-24T08:04:13.443Z,145
2019-02-24T08:05:22.891Z,145
2019-02-24T08:06:32.826Z,150
2019-02-24T08:07:42.793Z,150
2019-02-24T08:08:52.467Z,150
2019-02-24T08:10:02.153Z,155
2019-02-24T08:11:12.105Z,155
2019-02-24T08:12:21.782Z,160
2019-02-24T08:13:31.480Z,165
2019-02-24T08:14:41.184Z,165
2019-02-24T08:15:51.129Z,170
2019-02-24T08:17:00.841Z,170
2019-02-24T08:18:10.778Z,175
2019-02-24T08:19:20.703Z,175
2019-02-24T08:20:30.639Z,180
2019-02-24T08:21:40.581Z,180
2019-02-24T08:22:50.513Z,180
2019-02-24T08:24:00.456Z,185
2019-02-24T08:25:09.903Z,190
2019-02-24T08:26:19.851Z,195
2019-02-24T08:27:29.795Z,200
2019-02-24T08:28:39.503Z,200
2019-02-24T08:29:49.441Z,205
2019-02-24T08:30:59.394Z,210
2019-02-24T08:32:09.112Z,210
2019-02-24T08:33:19.360Z,215
2019-02-24T08:34:29.307Z,220
2019-02-24T08:35:39.255Z,220
2019-02-24T08:36:48.952Z,220
2019-02-24T08:37:58.624Z,220
2019-02-24T08:39:08.581Z,225
2019-02-24T08:40:18.034Z,225
2019-02-24T08:41:28.033Z,225
2019-02-24T08:42:38.035Z,225
2019-02-24T08:43:47.761Z,225
2019-02-24T08:44:57.720Z,230
2019-02-24T08:46:07.675Z,230
2019-02-24T08:47:17.623Z,230
2019-02-24T08:48:28.877Z,230
2019-02-24T08:49:38.572Z,230
2019-02-24T08:50:48.519Z,240
2019-02-24T08:51:58.449Z,270
2019-02-24T08:53:08.137Z,295
2019-02-24T08:54:17.825Z,290
2019-02-24T08:55:27.767Z,270
2019-02-24T08:56:37.449Z,235
2019-02-24T08:57:47.403Z,290
2019-02-24T08:58:56.840Z,280
2019-02-24T09:00:06.775Z,280
2019-02-24T09:01:16.741Z,275
2019-02-24T09:02:26.675Z,270
2019-02-24T09:03:36.370Z,265
2019-02-24T09:04:46.324Z,270
2019-02-24T09:05:56.307Z,270
2019-02-24T09:07:06.053Z,270
2019-02-24T09:08:16.023Z,270
2019-02-24T09:09:25.719Z,275
2019-02-24T09:10:35.661Z,285
2019-02-24T09:11:45.346Z,295
2019-02-24T09:12:55.303Z,295
2019-02-24T09:14:04.997Z,300
2019-02-24T09:15:14.450Z,300
2019-02-24T09:16:24.417Z,300
2019-02-24T09:17:34.368Z,300
2019-02-24T09:18:43.809Z,305
2019-02-24T09:19:53.772Z,310
2019-02-24T09:21:03.756Z,310
2019-02-24T09:22:14.965Z,310
2019-02-24T09:23:24.967Z,310
2019-02-24T09:24:34.904Z,320
2019-02-24T09:25:44.858Z,325
2019-02-24T09:26:54.310Z,325
2019-02-24T09:28:03.996Z,330
2019-02-24T09:29:13.952Z,335
2019-02-24T09:30:23.895Z,330
2019-02-24T09:31:33.082Z,335
2019-02-24T09:32:43.041Z,345
2019-02-24T09:33:53.014Z,415
2019-02-24T09:35:02.728Z,440
2019-02-24T09:36:12.709Z,420
2019-02-24T09:37:22.678Z,430
2019-02-24T09:38:32.627Z,450
2019-02-24T09:39:42.567Z,470
2019-02-24T09:40:52.512Z,495
2019-02-24T09:42:02.227Z,515
2019-02-24T09:43:12.195Z,500
2019-02-24T09:44:22.158Z,500
2019-02-24T09:45:32.069Z,520
2019-02-24T09:46:42.015Z,535
2019-02-24T09:47:56.051Z,535
2019-02-24T09:49:06.005Z,560
2019-02-24T09:50:15.704Z,575
2019-02-24T09:51:25.678Z,565
2019-02-24T09:52:35.614Z,590
2019-02-24T09:53:45.572Z,635
2019-02-24T09:54:55.546Z,650
2019-02-24T09:56:05.288Z,670
2019-02-24T09:57:15.248Z,685
2019-02-24T09:58:24.954Z,685
2019-02-24T09:59:34.931Z,685
2019-02-24T10:00:44.869Z,710
2019-02-24T10:01:54.824Z,720
2019-02-24T10:03:04.877Z,730
2019-02-24T10:04:14.833Z,715
2019-02-24T10:05:24.795Z,745
2019-02-24T10:06:34.767Z,770
2019-02-24T10:07:44.724Z,795
2019-02-24T10:08:54.689Z,815
2019-02-24T10:10:04.646Z,830
2019-02-24T10:11:15.746Z,855
2019-02-24T10:12:25.465Z,870
2019-02-24T10:13:35.169Z,875
2019-02-24T10:14:45.113Z,890
2019-02-24T10:15:55.071Z,925
2019-02-24T10:17:05.062Z,940
2019-02-24T10:18:14.504Z,930
2019-02-24T10:19:24.465Z,955
2019-02-24T10:20:33.929Z,950
2019-02-24T10:21:43.945Z,1000
2019-02-24T10:22:53.693Z,1025
2019-02-24T10:24:03.412Z,1035
2019-02-24T10:25:15.549Z,1040
2019-02-24T10:26:25.499Z,1060
2019-02-24T10:27:35.453Z,1090
2019-02-24T10:28:45.171Z,1035
2019-02-24T10:29:55.182Z,1135
2019-02-24T10:31:06.403Z,1145
2019-02-24T10:32:16.131Z,1125
2019-02-24T10:33:26.159Z,1130
2019-02-24T10:34:36.130Z,1175
2019-02-24T10:35:46.095Z,1120
2019-02-24T10:36:56.060Z,1210
2019-02-24T10:38:05.774Z,1175
2019-02-24T10:39:15.736Z,1275
2019-02-24T10:40:25.193Z,1240
2019-02-24T10:41:34.906Z,1230
2019-02-24T10:42:44.864Z,1240
2019-02-24T10:43:54.583Z,1320
2019-02-24T10:45:04.542Z,1320
2019-02-24T10:46:15.866Z,1270
2019-02-24T10:47:25.840Z,1210
2019-02-24T10:48:35.542Z,1255
2019-02-24T10:49:45.482Z,1340
2019-02-24T10:50:55.187Z,1340
2019-02-24T10:52:05.161Z,1360
2019-02-24T10:53:15.111Z,1395
2019-02-24T10:54:24.826Z,1400
2019-02-24T10:55:34.535Z,1415
2019-02-24T10:56:44.242Z,1400
2019-02-24T10:57:53.960Z,1465
2019-02-24T10:59:03.419Z,1455
2019-02-24T11:00:12.886Z,1475
2019-02-24T11:01:31.642Z,1445
2019-02-24T11:02:41.625Z,1345
2019-02-24T11:03:51.578Z,1425
2019-02-24T11:05:01.533Z,1440
2019-02-24T11:06:11.510Z,1540
2019-02-24T11:07:21.463Z,1560
2019-02-24T11:08:31.188Z,1535
2019-02-24T11:09:41.132Z,1500
2019-02-24T11:10:51.103Z,1535
2019-02-24T11:12:00.814Z,1590
2019-02-24T11:13:10.775Z,1530
2019-02-24T11:14:20.732Z,1515
2019-02-24T11:15:30.686Z,1625
2019-02-24T11:16:41.828Z,1690
2019-02-24T11:17:51.831Z,1755
2019-02-24T11:19:01.560Z,1575
2019-02-24T11:20:11.259Z,1650
2019-02-24T11:21:21.230Z,1700
2019-02-24T11:22:30.940Z,1655
2019-02-24T11:23:40.913Z,1655
2019-02-24T11:24:50.875Z,1670
2019-02-24T11:26:00.835Z,1770
2019-02-24T11:27:10.034Z,1745
2019-02-24T11:28:19.990Z,1745
2019-02-24T11:29:29.977Z,1765
2019-02-24T11:30:39.938Z,1750
2019-02-24T11:31:49.392Z,1825
2019-02-24T11:32:59.398Z,1645
2019-02-24T11:34:09.368Z,1580
2019-02-24T11:35:19.348Z,1680
2019-02-24T11:36:29.311Z,1625
2019-02-24T11:37:39.387Z,1565
2019-02-24T11:38:48.835Z,1690
2019-02-24T11:39:58.844Z,1660
2019-02-24T11:41:08.738Z,1685
2019-02-24T11:42:18.700Z,1845
2019-02-24T11:43:28.152Z,1860
2019-02-24T11:44:37.610Z,1830
2019-02-24T11:45:47.568Z,1625
2019-02-24T11:46:57.571Z,1530
2019-02-24T11:48:07.285Z,1675
2019-02-24T11:49:16.979Z,1805
2019-02-24T11:50:26.695Z,1915
2019-02-24T11:51:36.404Z,1975
2019-02-24T11:52:46.356Z,1910
2019-02-24T11:53:56.062Z,1775
2019-02-24T11:55:06.022Z,1875
2019-02-24T11:56:15.988Z,1990
2019-02-24T11:57:25.994Z,2035
2019-02-24T11:58:35.965Z,2040
2019-02-24T11:59:45.942Z,2045
2019-02-24T12:00:55.903Z,2080
2019-02-24T12:02:05.620Z,2055
2019-02-24T12:03:15.574Z,2120
2019-02-24T12:04:25.283Z,2135
2019-02-24T12:05:34.981Z,2000
2019-02-24T12:06:44.702Z,2070
2019-02-24T12:07:54.646Z,2080
2019-02-24T12:09:12.405Z,2090
2019-02-24T12:10:22.114Z,2095
2019-02-24T12:11:32.077Z,2105
2019-02-24T12:12:41.790Z,2060
2019-02-24T12:13:51.768Z,2130
2019-02-24T12:15:01.733Z,2120
2019-02-24T12:16:11.722Z,1605
2019-02-24T12:17:21.680Z,1610
2019-02-24T12:18:31.622Z,1975
2019-02-24T12:19:41.094Z,2010
2019-02-24T12:20:51.052Z,1750
2019-02-24T12:22:01.018Z,1730
2019-02-24T12:23:10.976Z,1910
2019-02-24T12:24:20.689Z,2165
2019-02-24T12:25:30.656Z,2200
2019-02-24T12:26:42.365Z,2115
2019-02-24T12:27:51.811Z,2115
2019-02-24T12:29:01.776Z,1635
2019-02-24T12:30:11.224Z,1765
2019-02-24T12:31:20.955Z,2210
2019-02-24T12:32:30.925Z,2120
2019-02-24T12:33:40.641Z,2095
2019-02-24T12:34:50.622Z,2190
2019-02-24T12:36:00.336Z,2270
2019-02-24T12:37:10.304Z,2265
2019-02-24T12:38:20.044Z,2200
2019-02-24T12:39:30.018Z,2230
2019-02-24T12:40:39.979Z,2250
2019-02-24T12:41:49.445Z,2245
2019-02-24T12:42:59.474Z,2175
2019-02-24T12:44:09.454Z,2215
2019-02-24T12:45:19.414Z,2205
2019-02-24T12:46:29.375Z,2150
2019-02-24T12:47:39.376Z,2215
2019-02-24T12:48:49.126Z,2160
2019-02-24T12:50:07.720Z,2095
2019-02-24T12:51:17.686Z,2140
2019-02-24T12:52:27.958Z,2195
2019-02-24T12:53:37.653Z,2250
2019-02-24T12:54:47.369Z,2250
2019-02-24T12:55:56.842Z,2240
2019-02-24T12:57:06.332Z,2170
2019-02-24T12:58:17.105Z,2380
2019-02-24T12:59:27.087Z,2385
2019-02-24T13:00:37.047Z,2185
2019-02-24T13:01:49.024Z,2220
2019-02-24T13:02:58.771Z,2315
2019-02-24T13:04:08.726Z,2180
2019-02-24T13:05:18.478Z,2160
2019-02-24T13:06:28.446Z,2325
2019-02-24T13:07:38.406Z,2320
2019-02-24T13:08:48.136Z,2300
2019-02-24T13:09:58.100Z,2365
2019-02-24T13:11:07.579Z,2255
2019-02-24T13:12:17.557Z,2175
2019-02-24T13:13:27.273Z,2245
2019-02-24T13:14:37.241Z,2280
2019-02-24T13:15:47.227Z,2250
2019-02-24T13:16:57.197Z,2230
2019-02-24T13:18:07.158Z,2200
2019-02-24T13:19:17.128Z,2350
2019-02-24T13:20:26.834Z,2380
2019-02-24T13:21:36.798Z,2425
2019-02-24T13:22:46.761Z,2440
2019-02-24T13:23:56.737Z,2270
2019-02-24T13:25:06.699Z,2205
2019-02-24T13:26:16.690Z,2275
2019-02-24T13:27:26.652Z,2235
2019-02-24T13:28:36.619Z,2280
2019-02-24T13:29:46.599Z,2265
2019-02-24T13:30:56.565Z,2300
2019-02-24T13:32:14.604Z,2275
2019-02-24T13:33:24.609Z,2315
2019-02-24T13:34:35.669Z,2220
2019-02-24T13:35:47.774Z,2335
2019-02-24T13:36:57.500Z,2265
2019-02-24T13:38:07.463Z,2230
2019-02-24T13:39:17.425Z,2310
2019-02-24T13:40:27.135Z,2315
2019-02-24T13:41:37.120Z,2305
2019-02-24T13:42:46.848Z,2275
2019-02-24T13:43:56.319Z,2280
2019-02-24T13:45:06.273Z,2325
2019-02-24T13:46:15.960Z,2365
2019-02-24T13:47:25.916Z,2340
2019-02-24T13:48:35.637Z,2320
2019-02-24T13:49:45.516Z,2310
2019-02-24T13:50:55.484Z,2475
2019-02-24T13:52:04.953Z,2440
2019-02-24T13:53:14.700Z,2325
2019-02-24T13:54:24.401Z,2305
2019-02-24T13:55:34.334Z,2345
2019-02-24T13:56:45.398Z,2335
2019-02-24T13:57:55.421Z,2305
2019-02-24T13:59:04.921Z,2270
2019-02-24T14:00:14.663Z,2240
2019-02-24T14:01:24.387Z,2230
2019-02-24T14:02:34.363Z,2265
2019-02-24T14:03:44.323Z,2285
2019-02-24T14:04:54.293Z,2250
2019-02-24T14:06:03.987Z,2235
2019-02-24T14:07:13.967Z,2360
2019-02-24T14:08:23.940Z,2255
2019-02-24T14:09:33.647Z,2285
2019-02-24T14:10:43.360Z,2415
2019-02-24T14:11:53.330Z,2280
2019-02-24T14:13:03.806Z,2230
2019-02-24T14:14:14.763Z,2155
2019-02-24T14:15:24.743Z,2120
2019-02-24T14:16:34.201Z,2145
2019-02-24T14:17:44.165Z,2175
2019-02-24T14:18:54.565Z,2160
2019-02-24T14:20:04.813Z,2160
2019-02-24T14:21:14.785Z,2185
2019-02-24T14:22:24.497Z,2065
2019-02-24T14:23:34.221Z,2050
2019-02-24T14:24:43.938Z,2230
2019-02-24T14:25:53.389Z,2215
2019-02-24T14:27:03.349Z,2120
2019-02-24T14:28:12.881Z,2060
2019-02-24T14:29:22.343Z,2070
2019-02-24T14:30:32.069Z,2055
2019-02-24T14:31:42.034Z,2170
2019-02-24T14:32:53.857Z,2190
2019-02-24T14:34:03.809Z,2090
2019-02-24T14:35:13.523Z,2015
2019-02-24T14:36:23.223Z,1990
2019-02-24T14:37:33.171Z,2040
2019-02-24T14:38:43.130Z,2020
2019-02-24T14:39:53.121Z,2035
2019-02-24T14:41:02.834Z,2085
2019-02-24T14:42:13.430Z,2020
2019-02-24T14:43:22.893Z,1865
2019-02-24T14:44:32.974Z,1890
2019-02-24T14:45:51.842Z,1895
2019-02-24T14:47:02.068Z,1890
2019-02-24T14:48:12.049Z,1840
2019-02-24T14:49:21.785Z,1825
2019-02-24T14:50:31.739Z,1895
2019-02-24T14:51:41.715Z,1910
2019-02-24T14:52:51.684Z,1885
2019-02-24T14:54:01.685Z,1915
2019-02-24T14:55:11.392Z,1870
2019-02-24T14:56:21.346Z,1770
2019-02-24T14:57:30.809Z,1735
2019-02-24T14:58:40.544Z,1715
2019-02-24T14:59:50.502Z,1735
2019-02-24T15:01:00.810Z,1730
2019-02-24T15:02:10.871Z,1710
2019-02-24T15:03:20.841Z,1730
2019-02-24T15:04:30.300Z,1735
2019-02-24T15:05:40.293Z,1680
2019-02-24T15:06:50.267Z,1610
2019-02-24T15:08:00.245Z,1605
2019-02-24T15:09:10.209Z,1580
2019-02-24T15:10:19.707Z,1585
2019-02-24T15:11:29.688Z,1580
2019-02-24T15:12:39.427Z,1585
2019-02-24T15:13:48.881Z,1560
2019-02-24T15:14:58.855Z,1505
2019-02-24T15:16:08.586Z,1400
2019-02-24T15:17:18.540Z,1380
2019-02-24T15:18:28.007Z,1215
2019-02-24T15:19:37.243Z,1310
2019-02-24T15:20:47.235Z,1385
2019-02-24T15:21:57.223Z,1390
2019-02-24T15:23:09.153Z,1335
2019-02-24T15:24:19.142Z,1345
2019-02-24T15:25:28.863Z,1380
2019-02-24T15:26:39.021Z,1345
2019-02-24T15:27:48.733Z,1295
2019-02-24T15:28:58.700Z,1225
2019-02-24T15:30:08.680Z,1215
2019-02-24T15:31:18.678Z,1005
2019-02-24T15:32:28.631Z,1065
2019-02-24T15:33:38.105Z,1170
2019-02-24T15:34:47.836Z,1170
2019-02-24T15:35:57.310Z,1120
2019-02-24T15:37:06.799Z,1090
2019-02-24T15:38:16.777Z,1020
2019-02-24T15:39:26.220Z,985
2019-02-24T15:40:36.177Z,795
2019-02-24T15:41:46.137Z,355
2019-02-24T15:42:56.101Z,475
2019-02-24T15:44:06.070Z,895
2019-02-24T15:45:15.794Z,830
2019-02-24T15:46:26.857Z,390
2019-02-24T15:47:36.958Z,155
2019-02-24T15:48:46.684Z,140
2019-02-24T15:49:56.647Z,125
2019-02-24T15:51:06.639Z,120
2019-02-24T15:52:19.632Z,120
2019-02-24T15:53:29.609Z,115
2019-02-24T15:54:39.067Z,115
2019-02-24T15:55:48.783Z,110
2019-02-24T15:56:58.761Z,105
2019-02-24T15:58:08.482Z,105
2019-02-24T15:59:18.205Z,100
2019-02-24T16:00:27.661Z,100
2019-02-24T16:01:37.619Z,95
2019-02-24T16:02:47.086Z,90
2019-02-24T16:03:57.066Z,90
2019-02-24T16:05:06.549Z,85
2019-02-24T16:06:16.496Z,80
2019-02-24T16:07:26.445Z,80
2019-02-24T16:08:36.145Z,75
2019-02-24T16:09:46.114Z,75
2019-02-24T16:10:55.074Z,70
2019-02-24T16:12:05.040Z,70
2019-02-24T16:13:23.550Z,65
2019-02-24T16:14:33.246Z,60
2019-02-24T16:15:42.714Z,60
2019-02-24T16:16:52.680Z,55
2019-02-24T16:18:02.404Z,55
2019-02-24T16:19:12.114Z,50
2019-02-24T16:20:21.836Z,50
2019-02-24T16:21:31.665Z,45